Eurasian Highway — 7JKY — position and weather

sailwx.info

Track history (hours):
 
Tides and Currents Weather Stations Pressure Air Temp Water Temp Dewpoint Dewpoint Depression Visibility Wind Speed Wind Dir Waves Ship Positions

Eurasian Highway

Last reported at 2016-Jun-29 16:33 UTC. Time now 2016-Jun-29 23:44 UTC.
Position N 25°52' W 079°24'.

Length 199 m; draft 9.2 m.

Type: Cargo ship. MMSI: 432839000.

Date/timePositionNaut miles runAvg speedWind from/ knotsBaromVisibWave heightAir tempDewpointWater temp
2016-Jun-29 16:33N 25°52' W 079°24'1414.5
2016-Jun-29 15:33N 26°06' W 079°19'  
2016-Jun-23 20:09N 37°03' W 031°41'1319.1
2016-Jun-23 19:29N 37°04' W 031°26'1718.5
2016-Jun-23 18:33N 37°05' W 031°04'1918.5
2016-Jun-23 17:30N 37°05' W 030°40'1818.5
2016-Jun-23 16:33N 37°06' W 030°18'2118.4
2016-Jun-23 15:25N 37°07' W 029°52'1618.7
2016-Jun-23 14:32N 37°07' W 029°31'1918.8
2016-Jun-23 13:33N 37°08' W 029°08'1818.5
2016-Jun-23 12:33N 37°08' W 028°45'1818.4
2016-Jun-23 11:33N 37°09' W 028°22'1918.6
2016-Jun-23 10:33N 37°09' W 027°58'1818.5
2016-Jun-23 09:33N 37°09' W 027°35'1918.4
2016-Jun-23 08:33N 37°09' W 027°12'1818.5
2016-Jun-23 07:34N 37°09' W 026°49'3718.3
2016-Jun-23 05:34N 37°09' W 026°03'1818.3
2016-Jun-23 04:34N 37°10' W 025°40'1818.5
2016-Jun-23 03:34N 37°10' W 025°17'1918.6
2016-Jun-23 02:34N 37°09' W 024°53'1918.7
2016-Jun-23 01:33N 37°09' W 024°30'1918.7
2016-Jun-23 00:34N 37°08' W 024°06'1818.4
2016-Jun-22 23:34N 37°07' W 023°43'4518.4
2016-Jun-22 21:05N 37°05' W 022°46'1118.5
2016-Jun-22 20:29N 37°04' W 022°32'1718.4
2016-Jun-22 19:33N 37°03' W 022°11'1918.7
2016-Jun-22 18:32N 37°02' W 021°47'34418.6
2016-Jun-22 00:03N 36°28' W 014°40'3418.3
2016-Jun-21 22:11N 36°23' W 013°58'1418.3
2016-Jun-21 21:25N 36°21' W 013°40'3418.5
2016-Jun-21 19:33N 36°16' W 012°58'1918.6
2016-Jun-21 18:33N 36°13' W 012°35'1818.6
2016-Jun-21 17:34N 36°10' W 012°13'1918.6
2016-Jun-21 16:34N 36°07' W 011°50'1818.3
2016-Jun-21 15:33N 36°04' W 011°28'4418.2
2016-Jun-21 13:09N 35°58' W 010°34'1118.6
2016-Jun-21 12:32N 35°57' W 010°20'1918.9
2016-Jun-21 11:33N 35°57' W 009°57'1918.7
2016-Jun-21 10:33N 35°57' W 009°34'2418.3
2016-Jun-21 09:12N 35°58' W 009°04'1718.6
2016-Jun-21 08:19N 35°58' W 008°43'1918.8
2016-Jun-21 07:19N 35°57' W 008°20'13119.1
2016-Jun-21 00:30N 35°58' W 005°38'1617.6
2016-Jun-20 23:34N 36°02' W 005°19'10817.9
2016-Jun-20 17:32N 36°19' W 003°07'1818.2
2016-Jun-20 16:33N 36°22' W 002°45'1818.4
2016-Jun-20 15:33N 36°25' W 002°23'1717.4
2016-Jun-20 14:33N 36°31' W 002°03'2118.8
2016-Jun-20 13:27N 36°47' W 001°46'5418.5
2016-Jun-20 10:33N 37°23' W 000°56'1918.7
2016-Jun-20 09:33N 37°33' W 000°36'1818.6
2016-Jun-20 08:33N 37°48' W 000°23'2018.7
2016-Jun-20 07:30N 38°05' W 000°10'1818.8
2016-Jun-20 06:32N 38°20' E 000°04'9619.0
2016-Jun-20 01:29N 39°43' E 001°05'1819.5
2016-Jun-20 00:33N 39°59' E 001°17'1919.3
2016-Jun-19 23:33N 40°16' E 001°29'1918.9
2016-Jun-19 22:33N 40°33' E 001°41'1918.7
2016-Jun-19 21:33N 40°50' E 001°51'1918.8
2016-Jun-19 20:33N 41°06' E 002°03'1514.0
2016-Jun-19 19:30N 41°20' E 002°10'1 0.7
2016-Jun-19 18:16N 41°20' E 002°09'0 0.0
2016-Jun-19 17:28N 41°20' E 002°09'  
Track history (hours):
 
Tides and Currents Weather Stations Pressure Air Temp Water Temp Dewpoint Dewpoint Depression Visibility Wind Speed Wind Dir Waves Ship Positions

Eurasian Highway

Last reported at 2016-Jun-29 16:33 UTC. Time now 2016-Jun-29 23:44 UTC.
Position N 25°52' W 079°24'.

Length 199 m; draft 9.2 m.

Type: Cargo ship. MMSI: 432839000.

Date/timePositionNaut miles runAvg speedWind from/ knotsBaromVisibWave heightAir tempDewpointWater temp
2016-Jun-29 16:33N 25°52' W 079°24'1414.5
2016-Jun-29 15:33N 26°06' W 079°19'  
2016-Jun-23 20:09N 37°03' W 031°41'1319.1
2016-Jun-23 19:29N 37°04' W 031°26'1718.5
2016-Jun-23 18:33N 37°05' W 031°04'1918.5
2016-Jun-23 17:30N 37°05' W 030°40'1818.5
2016-Jun-23 16:33N 37°06' W 030°18'2118.4
2016-Jun-23 15:25N 37°07' W 029°52'1618.7
2016-Jun-23 14:32N 37°07' W 029°31'1918.8
2016-Jun-23 13:33N 37°08' W 029°08'1818.5
2016-Jun-23 12:33N 37°08' W 028°45'1818.4
2016-Jun-23 11:33N 37°09' W 028°22'1918.6
2016-Jun-23 10:33N 37°09' W 027°58'1818.5
2016-Jun-23 09:33N 37°09' W 027°35'1918.4
2016-Jun-23 08:33N 37°09' W 027°12'1818.5
2016-Jun-23 07:34N 37°09' W 026°49'3718.3
2016-Jun-23 05:34N 37°09' W 026°03'1818.3
2016-Jun-23 04:34N 37°10' W 025°40'1818.5
2016-Jun-23 03:34N 37°10' W 025°17'1918.6
2016-Jun-23 02:34N 37°09' W 024°53'1918.7
2016-Jun-23 01:33N 37°09' W 024°30'1918.7
2016-Jun-23 00:34N 37°08' W 024°06'1818.4
2016-Jun-22 23:34N 37°07' W 023°43'4518.4
2016-Jun-22 21:05N 37°05' W 022°46'1118.5
2016-Jun-22 20:29N 37°04' W 022°32'1718.4
2016-Jun-22 19:33N 37°03' W 022°11'1918.7
2016-Jun-22 18:32N 37°02' W 021°47'34418.6
2016-Jun-22 00:03N 36°28' W 014°40'3418.3
2016-Jun-21 22:11N 36°23' W 013°58'1418.3
2016-Jun-21 21:25N 36°21' W 013°40'3418.5
2016-Jun-21 19:33N 36°16' W 012°58'1918.6
2016-Jun-21 18:33N 36°13' W 012°35'1818.6
2016-Jun-21 17:34N 36°10' W 012°13'1918.6
2016-Jun-21 16:34N 36°07' W 011°50'1818.3
2016-Jun-21 15:33N 36°04' W 011°28'4418.2
2016-Jun-21 13:09N 35°58' W 010°34'1118.6
2016-Jun-21 12:32N 35°57' W 010°20'1918.9
2016-Jun-21 11:33N 35°57' W 009°57'1918.7
2016-Jun-21 10:33N 35°57' W 009°34'2418.3
2016-Jun-21 09:12N 35°58' W 009°04'1718.6
2016-Jun-21 08:19N 35°58' W 008°43'1918.8
2016-Jun-21 07:19N 35°57' W 008°20'13119.1
2016-Jun-21 00:30N 35°58' W 005°38'1617.6
2016-Jun-20 23:34N 36°02' W 005°19'10817.9
2016-Jun-20 17:32N 36°19' W 003°07'1818.2
2016-Jun-20 16:33N 36°22' W 002°45'1818.4
2016-Jun-20 15:33N 36°25' W 002°23'1717.4
2016-Jun-20 14:33N 36°31' W 002°03'2118.8
2016-Jun-20 13:27N 36°47' W 001°46'5418.5
2016-Jun-20 10:33N 37°23' W 000°56'1918.7
2016-Jun-20 09:33N 37°33' W 000°36'1818.6
2016-Jun-20 08:33N 37°48' W 000°23'2018.7
2016-Jun-20 07:30N 38°05' W 000°10'1818.8
2016-Jun-20 06:32N 38°20' E 000°04'9619.0
2016-Jun-20 01:29N 39°43' E 001°05'1819.5
2016-Jun-20 00:33N 39°59' E 001°17'1919.3
2016-Jun-19 23:33N 40°16' E 001°29'1918.9
2016-Jun-19 22:33N 40°33' E 001°41'1918.7
2016-Jun-19 21:33N 40°50' E 001°51'1918.8
2016-Jun-19 20:33N 41°06' E 002°03'1514.0
2016-Jun-19 19:30N 41°20' E 002°10'1 0.7
2016-Jun-19 18:16N 41°20' E 002°09'0 0.0
2016-Jun-19 17:28N 41°20' E 002°09'  

Dump ship's entire track history